Weather at Luray Caverns Airport

Public forecast

Using degrees Fahrenheit for public forecast. Weather courtesy of forecast.io.

Current aviation weather report (METAR) for Luray Caverns Airport

Retrieved 2020/09/30 18:15 UTC (0 seconds ago):

KLUA 301815Z AUTO RMK AO2 PWINO PNO TSNO

Closest aviation forecast (TAF) to Luray Caverns Airport

Closest forecast is Charlottesville Albemarle Airport, 31.8 nm (58.9 km) S. Retrieved 2020/09/30 18:39 UTC (0 seconds ago):

TAF KCHO 301736Z 3018/0118 24007KT P6SM SKC FM302200 21005KT P6SM SKC FM010600 21004KT P6SM FEW100 FM011500 24005KT P6SM SCT100 SCT250